createdAt,value
2022-12-03T00:01:34.310Z,13.50
2022-12-03T00:04:21.001Z,11.20
2022-12-03T00:07:07.896Z,11.80
2022-12-03T00:09:54.753Z,11.10
2022-12-03T00:12:41.250Z,8.90
2022-12-03T00:15:28.207Z,11.70
2022-12-03T00:18:14.850Z,14.20
2022-12-03T00:21:01.475Z,12.30
2022-12-03T00:23:48.029Z,11.10
2022-12-03T00:26:35.075Z,10.80
2022-12-03T00:29:21.480Z,12.60
2022-12-03T00:32:08.197Z,10.00
2022-12-03T00:34:54.850Z,10.30
2022-12-03T00:37:41.502Z,10.80
2022-12-03T00:40:28.105Z,8.40
2022-12-03T00:43:14.815Z,11.30
2022-12-03T00:46:01.522Z,11.70
2022-12-03T00:48:48.357Z,11.10
2022-12-03T00:51:36.022Z,10.30
2022-12-03T00:54:28.346Z,11.60
2022-12-03T00:57:17.956Z,9.60
2022-12-03T01:00:07.966Z,9.90
2022-12-03T01:02:54.435Z,11.70
2022-12-03T01:05:40.766Z,12.70
2022-12-03T01:08:27.372Z,11.00
2022-12-03T01:11:32.611Z,13.00
2022-12-03T01:14:19.748Z,10.50
2022-12-03T01:17:07.054Z,11.40
2022-12-03T01:19:53.763Z,12.90
2022-12-03T01:22:40.573Z,13.00
2022-12-03T01:25:27.588Z,11.70
2022-12-03T01:28:14.197Z,13.30
2022-12-03T01:31:19.386Z,12.30
2022-12-03T01:34:06.462Z,9.10
2022-12-03T01:36:53.471Z,12.20
2022-12-03T01:39:40.483Z,13.40
2022-12-03T01:42:29.318Z,10.60
2022-12-03T01:45:22.084Z,9.50
2022-12-03T01:48:10.029Z,12.30
2022-12-03T01:50:56.737Z,12.10
2022-12-03T01:53:43.649Z,14.00
2022-12-03T01:56:30.401Z,13.80
2022-12-03T01:59:21.571Z,12.20
2022-12-03T02:05:01.337Z,11.80
2022-12-03T02:07:48.327Z,6.80
2022-12-03T02:10:35.676Z,11.00
2022-12-03T02:13:21.973Z,10.80
2022-12-03T02:16:08.847Z,9.30
2022-12-03T02:18:55.111Z,12.80
2022-12-03T02:21:47.933Z,11.60
2022-12-03T02:25:03.812Z,11.20
2022-12-03T02:27:50.738Z,9.30
2022-12-03T02:30:37.323Z,11.80
2022-12-03T02:33:23.790Z,12.70
2022-12-03T02:36:10.453Z,11.20
2022-12-03T02:38:57.274Z,11.50
2022-12-03T02:42:02.714Z,11.70
2022-12-03T02:44:49.518Z,11.70
2022-12-03T02:47:40.020Z,11.20
2022-12-03T02:50:29.157Z,11.10
2022-12-03T02:53:19.645Z,6.90
2022-12-03T02:56:06.611Z,12.60
2022-12-03T02:58:54.678Z,11.90
2022-12-03T03:01:41.322Z,9.70
2022-12-03T03:04:27.746Z,11.90
2022-12-03T03:07:14.453Z,11.40
2022-12-03T03:10:00.911Z,12.50
2022-12-03T03:12:47.474Z,12.80
2022-12-03T03:15:35.832Z,9.90
2022-12-03T03:18:22.615Z,10.60
2022-12-03T03:21:09.131Z,12.20
2022-12-03T03:23:56.029Z,11.00
2022-12-03T03:26:42.946Z,12.10
2022-12-03T03:29:30.775Z,13.50
2022-12-03T03:32:17.371Z,13.20
2022-12-03T03:35:05.356Z,13.30
2022-12-03T03:37:53.668Z,12.30
2022-12-03T03:40:40.382Z,11.70
2022-12-03T03:43:26.985Z,13.20
2022-12-03T03:46:13.697Z,10.60
2022-12-03T03:49:01.295Z,12.60
2022-12-03T03:51:48.338Z,10.30
2022-12-03T03:54:35.146Z,11.60
2022-12-03T03:57:21.752Z,10.30
2022-12-03T04:00:08.972Z,9.90
2022-12-03T04:02:55.680Z,9.30
2022-12-03T04:05:42.298Z,13.00
2022-12-03T04:08:29.175Z,12.20
2022-12-03T04:11:34.505Z,12.30
2022-12-03T04:14:21.457Z,9.30
2022-12-03T04:17:07.952Z,11.40
2022-12-03T04:19:54.663Z,11.70
2022-12-03T04:22:41.171Z,11.50
2022-12-03T04:25:46.313Z,10.50
2022-12-03T04:28:51.350Z,10.20
2022-12-03T04:31:57.326Z,14.00
2022-12-03T04:35:03.108Z,12.10
2022-12-03T04:37:49.815Z,11.00
2022-12-03T04:40:56.242Z,11.80
2022-12-03T04:44:02.489Z,11.60
2022-12-03T04:46:48.919Z,13.20
2022-12-03T04:49:37.081Z,12.30
2022-12-03T04:52:23.453Z,12.40
2022-12-03T04:55:10.161Z,7.60
2022-12-03T04:57:57.075Z,12.60
2022-12-03T05:00:43.683Z,12.80
2022-12-03T05:03:30.389Z,13.60
2022-12-03T05:06:17.194Z,13.50
2022-12-03T05:09:03.910Z,12.90
2022-12-03T05:11:50.713Z,13.60
2022-12-03T05:14:37.451Z,12.50
2022-12-03T05:17:24.338Z,11.60
2022-12-03T05:20:31.013Z,13.90
2022-12-03T05:23:17.322Z,13.30
2022-12-03T05:26:04.022Z,10.00
2022-12-03T05:28:50.420Z,4.90
2022-12-03T05:31:36.824Z,13.50
2022-12-03T05:34:23.429Z,14.20
2022-12-03T05:37:10.032Z,15.10
2022-12-03T05:39:56.745Z,10.70
2022-12-03T05:42:57.035Z,14.20
2022-12-03T05:45:44.705Z,14.30
2022-12-03T05:48:31.202Z,13.90
2022-12-03T05:51:18.118Z,15.10
2022-12-03T05:54:04.828Z,11.90
2022-12-03T05:56:51.119Z,8.60
2022-12-03T05:59:37.829Z,13.60
2022-12-03T06:02:24.553Z,12.50
2022-12-03T06:05:12.169Z,12.40
2022-12-03T06:07:58.947Z,14.20
2022-12-03T06:10:45.821Z,11.80
2022-12-03T06:13:32.755Z,14.40
2022-12-03T06:16:19.612Z,14.00
2022-12-03T06:19:06.120Z,16.30
2022-12-03T06:21:53.012Z,10.80
2022-12-03T06:24:39.867Z,15.10
2022-12-03T06:27:26.594Z,14.00
2022-12-03T06:30:14.947Z,12.80
2022-12-03T06:33:02.122Z,15.30
2022-12-03T06:35:49.036Z,12.70
2022-12-03T06:38:35.548Z,15.30
2022-12-03T06:41:24.594Z,15.10
2022-12-03T06:44:11.553Z,12.00
2022-12-03T06:46:58.047Z,12.60
2022-12-03T06:49:44.742Z,13.00
2022-12-03T06:52:31.713Z,11.20
2022-12-03T06:55:20.478Z,12.80
2022-12-03T06:58:07.396Z,14.30
2022-12-03T07:00:54.229Z,14.40
2022-12-03T07:03:40.993Z,13.40
2022-12-03T07:06:27.593Z,11.90
2022-12-03T07:09:17.046Z,12.00
2022-12-03T07:12:06.274Z,13.40
2022-12-03T07:14:53.368Z,12.00
2022-12-03T07:17:39.978Z,11.80
2022-12-03T07:20:26.993Z,13.00
2022-12-03T07:23:13.783Z,13.90
2022-12-03T07:26:00.634Z,11.10
2022-12-03T07:28:48.368Z,14.80
2022-12-03T07:31:35.214Z,13.60
2022-12-03T07:34:21.782Z,12.00
2022-12-03T07:37:08.492Z,14.80
2022-12-03T07:39:55.615Z,13.20
2022-12-03T07:42:42.523Z,13.20
2022-12-03T07:45:29.436Z,8.40
2022-12-03T07:48:16.454Z,17.10
2022-12-03T07:51:03.414Z,15.10
2022-12-03T07:53:50.075Z,14.00
2022-12-03T07:56:36.865Z,12.80
2022-12-03T07:59:23.745Z,16.20
2022-12-03T08:02:10.173Z,13.80
2022-12-03T08:04:57.102Z,14.40
2022-12-03T08:07:43.653Z,13.90
2022-12-03T08:10:30.599Z,14.10
2022-12-03T08:13:18.076Z,12.50
2022-12-03T08:16:12.592Z,15.50
2022-12-03T08:18:59.152Z,15.40
2022-12-03T08:21:45.889Z,10.80
2022-12-03T08:24:32.642Z,13.90
2022-12-03T08:27:19.615Z,11.00
2022-12-03T08:30:15.031Z,14.90
2022-12-03T08:33:02.012Z,12.60
2022-12-03T08:35:50.237Z,13.60
2022-12-03T08:38:36.866Z,11.50
2022-12-03T08:41:42.311Z,10.20
2022-12-03T08:44:32.725Z,13.40
2022-12-03T08:47:20.541Z,17.10
2022-12-03T08:50:25.195Z,15.80
2022-12-03T08:53:30.510Z,15.60
2022-12-03T08:56:24.594Z,13.90
2022-12-03T08:59:29.400Z,16.80
2022-12-03T09:02:30.874Z,11.10
2022-12-03T09:05:27.419Z,9.50
2022-12-03T09:08:14.016Z,15.50
2022-12-03T09:11:01.448Z,16.00
2022-12-03T09:13:49.605Z,16.80
2022-12-03T09:16:36.148Z,17.50
2022-12-03T09:19:26.507Z,15.00
2022-12-03T09:22:13.502Z,16.70
2022-12-03T09:25:00.300Z,17.10
2022-12-03T09:27:47.124Z,7.50
2022-12-03T09:30:34.136Z,16.10
2022-12-03T09:33:21.061Z,15.50
2022-12-03T09:36:07.576Z,14.90
2022-12-03T09:38:57.864Z,12.60
2022-12-03T09:41:44.557Z,11.80
2022-12-03T09:44:32.678Z,18.40
2022-12-03T09:47:19.121Z,14.30
2022-12-03T09:50:06.335Z,15.50
2022-12-03T09:52:54.939Z,17.90
2022-12-03T09:55:42.578Z,14.70
2022-12-03T09:58:34.573Z,9.10
2022-12-03T10:01:21.532Z,13.00
2022-12-03T10:04:08.234Z,15.00
2022-12-03T10:06:54.788Z,15.60
2022-12-03T10:09:41.176Z,19.70
2022-12-03T10:12:27.976Z,14.50
2022-12-03T10:15:15.943Z,17.70
2022-12-03T10:18:20.136Z,9.10
2022-12-03T10:21:13.698Z,12.40
2022-12-03T10:24:28.991Z,13.80
2022-12-03T10:27:25.282Z,14.70
2022-12-03T10:30:18.425Z,17.20
2022-12-03T10:33:18.501Z,11.40
2022-12-03T10:36:23.304Z,20.30
2022-12-03T10:39:12.693Z,16.10
2022-12-03T10:42:13.507Z,17.30
2022-12-03T10:45:14.600Z,7.70
2022-12-03T10:48:05.157Z,17.70
2022-12-03T10:50:53.647Z,13.80
2022-12-03T10:53:40.109Z,16.10
2022-12-03T10:56:26.561Z,18.20
2022-12-03T10:59:26.292Z,19.00
2022-12-03T11:02:22.920Z,10.70
2022-12-03T11:05:15.467Z,17.10
2022-12-03T11:08:02.002Z,18.40
2022-12-03T11:10:59.095Z,15.30
2022-12-03T11:13:54.121Z,17.50
2022-12-03T11:16:40.493Z,4.60
2022-12-03T11:19:36.114Z,11.90
2022-12-03T11:22:24.495Z,18.80
2022-12-03T11:25:37.370Z,16.00
2022-12-03T11:28:31.423Z,14.90
2022-12-03T11:31:43.711Z,20.20
2022-12-03T11:34:39.260Z,21.60
2022-12-03T11:37:25.831Z,16.90
2022-12-03T11:40:18.904Z,17.50
2022-12-03T11:43:23.226Z,18.70
2022-12-03T11:46:12.300Z,17.20
2022-12-03T11:48:59.967Z,19.30
2022-12-03T11:51:46.833Z,16.20
2022-12-03T11:54:33.958Z,13.10
2022-12-03T11:57:37.944Z,14.00
2022-12-03T12:00:25.163Z,20.40
2022-12-03T12:03:21.460Z,18.50
2022-12-03T12:06:08.821Z,19.40
2022-12-03T12:08:57.131Z,19.50
2022-12-03T12:11:44.002Z,8.10
2022-12-03T12:14:30.374Z,14.30
2022-12-03T12:17:30.712Z,17.30
2022-12-03T12:20:26.761Z,19.90
2022-12-03T12:23:23.372Z,19.90
2022-12-03T12:26:09.774Z,20.50
2022-12-03T12:28:56.769Z,8.00
2022-12-03T12:31:43.246Z,15.90
2022-12-03T12:34:29.699Z,19.00
2022-12-03T12:37:35.645Z,20.00
2022-12-03T12:40:27.315Z,21.10
2022-12-03T12:43:24.857Z,18.80
2022-12-03T12:46:46.142Z,18.90
2022-12-03T12:49:25.148Z,19.40
2022-12-03T12:52:14.556Z,18.90
2022-12-03T12:55:04.857Z,21.70
2022-12-03T12:57:52.234Z,17.40
2022-12-03T13:00:38.739Z,19.60
2022-12-03T13:03:28.360Z,10.80
2022-12-03T13:06:15.389Z,20.70
2022-12-03T13:09:01.790Z,19.10
2022-12-03T13:12:04.206Z,19.20
2022-12-03T13:14:52.305Z,20.00
2022-12-03T13:17:39.071Z,20.10
2022-12-03T13:20:25.573Z,14.30
2022-12-03T13:23:33.312Z,21.50
2022-12-03T13:26:38.804Z,18.10
2022-12-03T13:29:26.960Z,20.20
2022-12-03T13:32:16.236Z,20.00
2022-12-03T13:35:31.946Z,21.50
2022-12-03T13:38:18.356Z,20.10
2022-12-03T13:41:05.104Z,19.50
2022-12-03T13:43:51.782Z,18.50
2022-12-03T13:46:38.195Z,16.00
2022-12-03T13:49:25.114Z,16.70
2022-12-03T13:52:16.879Z,18.20
2022-12-03T13:55:03.915Z,20.40
2022-12-03T13:57:50.253Z,20.70
2022-12-03T14:00:37.687Z,17.30
2022-12-03T14:03:24.357Z,20.60
2022-12-03T14:06:10.755Z,24.50
2022-12-03T14:08:58.051Z,21.20
2022-12-03T14:12:03.298Z,20.50
2022-12-03T14:14:50.086Z,20.70
2022-12-03T14:17:36.521Z,19.50
2022-12-03T14:20:22.936Z,19.80
2022-12-03T14:23:09.329Z,16.10
2022-12-03T14:25:56.232Z,16.70
2022-12-03T14:28:43.688Z,19.50
2022-12-03T14:31:30.415Z,19.80
2022-12-03T14:34:17.050Z,19.90
2022-12-03T14:37:03.675Z,19.20
2022-12-03T14:39:50.402Z,20.20
2022-12-03T14:42:37.140Z,21.00
2022-12-03T14:45:25.244Z,19.50
2022-12-03T14:48:11.821Z,21.10
2022-12-03T14:50:58.146Z,18.20
2022-12-03T14:53:44.964Z,19.70
2022-12-03T14:56:31.427Z,19.90
2022-12-03T14:59:20.691Z,22.10
2022-12-03T15:02:11.618Z,23.40
2022-12-03T15:04:58.558Z,20.40
2022-12-03T15:07:45.020Z,17.50
2022-12-03T15:10:31.856Z,20.30
2022-12-03T15:13:18.738Z,19.60
2022-12-03T15:16:05.685Z,21.30
2022-12-03T15:18:52.981Z,19.80
2022-12-03T15:21:39.640Z,21.00
2022-12-03T15:24:26.359Z,20.60
2022-12-03T15:27:13.207Z,22.00
2022-12-03T15:29:59.774Z,19.10
2022-12-03T15:32:46.694Z,21.50
2022-12-03T15:35:33.948Z,20.00
2022-12-03T15:38:20.875Z,16.50
2022-12-03T15:41:28.120Z,17.80
2022-12-03T15:44:14.955Z,19.10
2022-12-03T15:47:01.790Z,18.50
2022-12-03T15:49:48.922Z,21.00
2022-12-03T15:52:35.815Z,19.40
2022-12-03T15:55:22.663Z,20.50
2022-12-03T15:58:09.267Z,20.00
2022-12-03T16:00:55.776Z,20.40
2022-12-03T16:03:42.639Z,18.20
2022-12-03T16:06:29.242Z,21.00
2022-12-03T16:09:15.655Z,20.10
2022-12-03T16:12:02.097Z,16.40
2022-12-03T16:14:48.615Z,20.90
2022-12-03T16:17:35.060Z,20.60
2022-12-03T16:20:23.806Z,22.50
2022-12-03T16:23:10.398Z,15.60
2022-12-03T16:25:57.073Z,19.70
2022-12-03T16:28:44.367Z,20.20
2022-12-03T16:31:31.269Z,21.20
2022-12-03T16:34:18.365Z,20.90
2022-12-03T16:37:08.828Z,19.50
2022-12-03T16:39:56.011Z,18.80
2022-12-03T16:42:43.151Z,18.30
2022-12-03T16:45:29.355Z,21.20
2022-12-03T16:48:16.377Z,22.50
2022-12-03T16:51:02.628Z,22.00
2022-12-03T16:53:49.424Z,21.50
2022-12-03T16:56:36.142Z,22.20
2022-12-03T16:59:22.808Z,20.90
2022-12-03T17:02:11.042Z,18.30
2022-12-03T17:04:57.729Z,22.70
2022-12-03T17:07:44.658Z,21.70
2022-12-03T17:10:31.284Z,20.20
2022-12-03T17:13:18.160Z,21.20
2022-12-03T17:16:05.330Z,21.10
2022-12-03T17:19:00.977Z,22.60
2022-12-03T17:21:47.581Z,23.50
2022-12-03T17:24:34.104Z,23.00
2022-12-03T17:27:23.436Z,24.00
2022-12-03T17:30:10.928Z,25.10
2022-12-03T17:32:57.464Z,21.60
2022-12-03T17:35:45.607Z,21.00
2022-12-03T17:38:37.280Z,23.90
2022-12-03T17:41:26.623Z,22.10
2022-12-03T17:44:17.765Z,23.10
2022-12-03T17:47:06.381Z,22.10
2022-12-03T17:49:53.498Z,16.80
2022-12-03T17:52:40.295Z,23.10
2022-12-03T17:55:36.972Z,25.20
2022-12-03T17:58:28.682Z,22.20
2022-12-03T18:01:15.005Z,23.90
2022-12-03T18:04:01.821Z,21.80
2022-12-03T18:06:48.380Z,22.20
2022-12-03T18:09:35.144Z,20.70
2022-12-03T18:12:21.644Z,22.10
2022-12-03T18:15:08.937Z,23.40
2022-12-03T18:17:55.699Z,25.20
2022-12-03T18:20:42.110Z,23.40
2022-12-03T18:23:29.039Z,25.60
2022-12-03T18:26:16.059Z,21.10
2022-12-03T18:29:02.674Z,25.40
2022-12-03T18:31:49.287Z,26.90
2022-12-03T18:34:35.875Z,17.80
2022-12-03T18:37:22.508Z,20.80
2022-12-03T18:40:21.449Z,23.20
2022-12-03T18:43:14.840Z,23.30
2022-12-03T18:46:01.960Z,23.00
2022-12-03T18:48:48.971Z,24.80
2022-12-03T18:51:35.536Z,23.80
2022-12-03T18:54:22.104Z,23.10
2022-12-03T18:57:09.038Z,23.40
2022-12-03T18:59:56.053Z,26.20
2022-12-03T19:03:02.441Z,23.50
2022-12-03T19:05:49.750Z,22.50
2022-12-03T19:08:36.723Z,23.20
2022-12-03T19:11:23.137Z,24.60
2022-12-03T19:14:11.485Z,23.20
2022-12-03T19:16:57.868Z,21.80
2022-12-03T19:19:44.256Z,23.90
2022-12-03T19:22:30.851Z,18.90
2022-12-03T19:25:17.750Z,23.70
2022-12-03T19:28:04.789Z,25.50
2022-12-03T19:30:58.903Z,24.50
2022-12-03T19:33:46.394Z,27.10
2022-12-03T19:36:35.419Z,23.70
2022-12-03T19:39:22.303Z,26.40
2022-12-03T19:42:08.913Z,22.40
2022-12-03T19:44:55.665Z,25.50
2022-12-03T19:47:42.386Z,23.60
2022-12-03T19:50:30.634Z,24.80
2022-12-03T19:53:17.394Z,26.00
2022-12-03T19:56:08.685Z,25.60
2022-12-03T19:58:55.735Z,27.70
2022-12-03T20:01:43.397Z,24.20
2022-12-03T20:04:33.526Z,25.60
2022-12-03T20:07:20.099Z,27.70
2022-12-03T20:10:07.455Z,30.20
2022-12-03T20:12:54.080Z,26.80
2022-12-03T20:15:40.346Z,26.60
2022-12-03T20:18:26.867Z,15.80
2022-12-03T20:21:14.310Z,27.10
2022-12-03T20:24:01.024Z,25.50
2022-12-03T20:26:47.695Z,24.50
2022-12-03T20:29:34.101Z,24.80
2022-12-03T20:32:21.169Z,26.10
2022-12-03T20:35:08.379Z,24.00
2022-12-03T20:37:54.903Z,24.10
2022-12-03T20:40:41.689Z,24.00
2022-12-03T20:43:28.659Z,19.70
2022-12-03T20:46:21.716Z,26.00
2022-12-03T20:49:08.578Z,22.10
2022-12-03T20:51:57.067Z,14.40
2022-12-03T20:54:46.606Z,29.10
2022-12-03T20:57:33.135Z,24.40
2022-12-03T21:00:23.243Z,24.30
2022-12-03T21:03:10.025Z,26.00
2022-12-03T21:06:01.665Z,24.70
2022-12-03T21:11:36.048Z,24.00
2022-12-03T21:14:22.680Z,24.50
2022-12-03T21:17:09.698Z,23.90
2022-12-03T21:19:56.919Z,21.40
2022-12-03T21:22:43.931Z,19.70
2022-12-03T21:25:30.411Z,24.60
2022-12-03T21:28:17.297Z,25.30
2022-12-03T21:31:05.935Z,21.40
2022-12-03T21:33:55.522Z,24.20
2022-12-03T21:36:42.336Z,12.80
2022-12-03T21:39:29.015Z,23.90
2022-12-03T21:42:33.287Z,17.20
2022-12-03T21:45:25.042Z,13.90
2022-12-03T21:48:11.507Z,19.00
2022-12-03T21:51:03.741Z,21.60
2022-12-03T21:53:50.872Z,24.60
2022-12-03T21:56:37.572Z,25.00
2022-12-03T21:59:25.886Z,19.90
2022-12-03T22:02:12.757Z,25.70
2022-12-03T22:05:00.060Z,27.20
2022-12-03T22:07:47.071Z,18.50
2022-12-03T22:10:34.785Z,24.10
2022-12-03T22:13:21.389Z,25.40
2022-12-03T22:16:09.929Z,23.80
2022-12-03T22:18:56.808Z,24.90
2022-12-03T22:21:43.659Z,19.50
2022-12-03T22:24:30.668Z,26.80
2022-12-03T22:27:17.237Z,26.60
2022-12-03T22:30:04.667Z,21.40
2022-12-03T22:32:53.237Z,19.60
2022-12-03T22:35:40.377Z,24.80
2022-12-03T22:38:27.017Z,23.40
2022-12-03T22:41:14.208Z,26.20
2022-12-03T22:44:00.967Z,24.80
2022-12-03T22:46:47.723Z,20.90
2022-12-03T22:49:34.536Z,26.80
2022-12-03T22:52:21.572Z,26.60
2022-12-03T22:55:09.083Z,24.50
2022-12-03T22:57:55.536Z,26.00
2022-12-03T23:00:42.263Z,26.80
2022-12-03T23:03:29.031Z,26.70
2022-12-03T23:06:15.404Z,26.90
2022-12-03T23:09:02.503Z,23.50
2022-12-03T23:11:49.070Z,23.30
2022-12-03T23:14:36.903Z,17.00
2022-12-03T23:17:26.635Z,24.00
2022-12-03T23:20:13.899Z,30.30
2022-12-03T23:23:00.346Z,26.50
2022-12-03T23:26:00.279Z,17.40
2022-12-03T23:28:47.397Z,27.00
2022-12-03T23:31:34.013Z,24.80
2022-12-03T23:34:20.938Z,25.80
2022-12-03T23:37:10.291Z,18.20
2022-12-03T23:39:57.110Z,26.90
2022-12-03T23:42:43.702Z,25.90
2022-12-03T23:45:33.413Z,26.20
2022-12-03T23:48:19.845Z,25.30
2022-12-03T23:51:10.775Z,28.00
2022-12-03T23:53:57.401Z,28.90
2022-12-03T23:56:44.879Z,26.40
2022-12-03T23:59:31.681Z,17.00
